Time;durP1;ratioP1;P1;durP2;ratioP2;P2;SDS_P1;SDS_P2;PMS_P1;PMS_P2;Temp;Humidity;BMP_temperature;BMP_pressure;BME280_temperature;BME280_humidity;BME280_pressure;Samples;Min_cycle;Max_cycle;Signal;HPM_P1;HPM_P2
2021/08/01 00:09:59;;;;;;;5.82;2.50;;;16.50;99.90;;;;;;6727104;88;20977;-79
2021/08/01 00:20:00;;;;;;;3.78;2.40;;;16.40;99.90;;;;;;6727883;88;20761;-79
2021/08/01 00:30:04;;;;;;;4.72;2.80;;;16.40;99.90;;;;;;6729407;88;20204;-79
2021/08/01 00:40:06;;;;;;;4.60;2.40;;;16.30;99.90;;;;;;6734208;88;20641;-79
2021/08/01 00:50:08;;;;;;;7.22;2.95;;;16.40;99.90;;;;;;6726314;88;20262;-79
2021/08/01 01:00:22;;;;;;;4.47;2.30;;;16.40;99.90;;;;;;6725290;88;20767;-79
2021/08/01 01:10:37;;;;;;;6.40;2.60;;;16.20;99.90;;;;;;6725850;88;20243;-78
2021/08/01 01:21:09;;;;;;;4.47;2.50;;;16.00;99.90;;;;;;6723281;88;20193;-79
2021/08/01 01:31:18;;;;;;;4.53;2.40;;;16.00;99.90;;;;;;6728030;88;20197;-79
2021/08/01 01:41:20;;;;;;;4.00;2.58;;;16.00;99.90;;;;;;6728585;88;20174;-79
2021/08/01 01:51:21;;;;;;;5.78;2.40;;;16.00;99.90;;;;;;6728516;88;20228;-78
2021/08/01 02:01:22;;;;;;;4.18;2.60;;;16.00;99.90;;;;;;6721414;88;20209;-78
2021/08/01 02:11:26;;;;;;;7.10;3.10;;;16.00;99.90;;;;;;6719663;88;20260;-78
2021/08/01 02:21:28;;;;;;;3.70;2.20;;;16.00;99.90;;;;;;6724400;88;20379;-79
2021/08/01 02:41:38;;;;;;;3.97;2.22;;;16.30;99.90;;;;;;6717135;88;20691;-77
2021/08/01 02:51:39;;;;;;;4.18;2.22;;;16.40;99.90;;;;;;6716070;88;20230;-75
2021/08/01 03:01:40;;;;;;;3.47;2.17;;;16.30;99.90;;;;;;6716493;88;20189;-79
2021/08/01 03:11:40;;;;;;;4.12;2.20;;;16.20;99.90;;;;;;6716825;88;20629;-77
2021/08/01 03:21:41;;;;;;;4.05;2.22;;;16.10;99.90;;;;;;6718603;88;20222;-76
2021/08/01 03:31:41;;;;;;;3.72;2.42;;;16.10;99.90;;;;;;6719101;88;20691;-77
2021/08/01 03:41:42;;;;;;;4.40;2.47;;;16.20;99.90;;;;;;6717443;88;20192;-79
2021/08/01 03:51:43;;;;;;;3.92;2.40;;;16.40;99.90;;;;;;6717963;88;20865;-76
2021/08/01 04:01:43;;;;;;;4.55;2.40;;;16.10;99.90;;;;;;6717446;88;20227;-76
2021/08/01 04:11:44;;;;;;;4.03;2.53;;;16.20;99.90;;;;;;6717045;88;20688;-75
2021/08/01 04:21:45;;;;;;;6.25;2.58;;;16.30;99.90;;;;;;6717596;88;21270;-76
2021/08/01 04:31:46;;;;;;;6.80;2.42;;;16.30;99.90;;;;;;6719336;88;20244;-78
2021/08/01 04:41:46;;;;;;;4.87;2.50;;;16.10;99.90;;;;;;6718986;88;20291;-76
2021/08/01 04:51:47;;;;;;;5.32;2.75;;;16.20;99.90;;;;;;6719276;88;20174;-76
2021/08/01 05:01:47;;;;;;;5.90;3.70;;;16.10;99.90;;;;;;6717950;88;20184;-76
2021/08/01 05:11:48;;;;;;;6.60;3.90;;;16.10;99.90;;;;;;6737138;88;20189;-78
2021/08/01 05:21:49;;;;;;;6.75;3.60;;;16.20;99.90;;;;;;6725734;88;20169;-79
2021/08/01 05:31:49;;;;;;;6.97;4.25;;;16.20;99.90;;;;;;6731644;88;20197;-76
2021/08/01 05:41:50;;;;;;;7.03;4.10;;;16.20;99.90;;;;;;6717341;88;20218;-77
2021/08/01 05:51:50;;;;;;;5.72;4.30;;;16.50;99.90;;;;;;6717365;88;20193;-76
2021/08/01 06:01:51;;;;;;;7.40;4.25;;;16.50;99.90;;;;;;6716761;88;20214;-79
2021/08/01 06:11:51;;;;;;;8.23;4.30;;;16.40;99.90;;;;;;6716338;88;20790;-78
2021/08/01 06:21:52;;;;;;;6.45;4.15;;;16.50;99.90;;;;;;6716942;88;20749;-76
2021/08/01 06:31:53;;;;;;;7.72;4.62;;;16.50;99.90;;;;;;6713946;88;20276;-77
2021/08/01 06:41:53;;;;;;;8.15;4.30;;;16.80;99.90;;;;;;6717004;88;20609;-77
2021/08/01 06:51:54;;;;;;;7.43;4.43;;;17.80;99.90;;;;;;6719078;88;20604;-77
2021/08/01 07:01:54;;;;;;;6.53;4.60;;;18.00;99.90;;;;;;6719935;88;20210;-77
2021/08/01 07:11:56;;;;;;;6.20;4.30;;;18.30;99.90;;;;;;6717795;88;20267;-76
2021/08/01 07:21:56;;;;;;;4.75;3.28;;;19.10;99.90;;;;;;6714196;88;20197;-77
2021/08/01 07:31:57;;;;;;;5.12;3.72;;;19.00;99.90;;;;;;6717326;88;20323;-77
2021/08/01 07:41:58;;;;;;;6.03;3.05;;;19.40;99.90;;;;;;6718344;88;20185;-76
2021/08/01 07:51:58;;;;;;;5.40;3.33;;;20.20;99.90;;;;;;6717239;88;20773;-76
2021/08/01 08:01:59;;;;;;;4.32;2.65;;;20.60;99.90;;;;;;6716847;88;20582;-76
2021/08/01 08:12:00;;;;;;;4.62;2.42;;;21.50;99.90;;;;;;6716461;88;20196;-77
2021/08/01 08:22:00;;;;;;;3.47;2.00;;;22.10;99.90;;;;;;6716670;88;20206;-77
2021/08/01 08:42:04;;;;;;;3.10;2.10;;;23.00;99.90;;;;;;6741927;88;20226;-81
2021/08/01 08:52:07;;;;;;;3.47;2.15;;;23.60;99.40;;;;;;6739291;88;20178;-82
2021/08/01 09:02:12;;;;;;;4.20;1.65;;;22.50;99.90;;;;;;6739355;88;20267;-82
2021/08/01 09:12:12;;;;;;;5.68;1.70;;;23.10;99.80;;;;;;6739051;88;20269;-82
2021/08/01 09:22:18;;;;;;;2.30;1.57;;;23.30;98.40;;;;;;6740015;88;20217;-82
2021/08/01 09:32:19;;;;;;;2.15;1.40;;;23.90;98.00;;;;;;6739469;88;20421;-83
2021/08/01 09:42:37;;;;;;;3.15;1.40;;;23.50;98.00;;;;;;6746124;88;20177;-86
2021/08/01 09:52:38;;;;;;;4.78;1.30;;;24.10;98.40;;;;;;6731998;88;20162;-84
2021/08/01 10:02:40;;;;;;;3.00;1.23;;;25.60;95.60;;;;;;6738877;88;20281;-85
2021/08/01 10:12:48;;;;;;;4.35;1.23;;;24.20;95.40;;;;;;6750227;88;20774;-84
2021/08/01 10:22:51;;;;;;;3.55;1.25;;;22.70;97.10;;;;;;6746492;88;20192;-83
2021/08/01 10:32:58;;;;;;;4.28;1.33;;;22.00;99.90;;;;;;6742391;88;20236;-81
2021/08/01 10:43:03;;;;;;;2.42;1.35;;;22.40;99.90;;;;;;6705182;89;20731;-81
2021/08/01 10:53:18;;;;;;;4.43;1.58;;;23.60;99.50;;;;;;6705104;89;20198;-81
2021/08/01 11:03:19;;;;;;;3.62;1.30;;;23.80;98.00;;;;;;6688898;89;20215;-80
2021/08/01 11:13:28;;;;;;;2.33;1.20;;;22.50;99.30;;;;;;6717333;88;20249;-81
2021/08/01 11:23:44;;;;;;;2.15;1.23;;;22.40;99.40;;;;;;6722049;88;20261;-80
2021/08/01 11:33:48;;;;;;;2.00;1.15;;;22.90;98.80;;;;;;6722301;88;20202;-81
2021/08/01 11:44:15;;;;;;;2.67;1.10;;;22.20;98.10;;;;;;6723541;88;20685;-80
2021/08/01 11:54:17;;;;;;;2.97;1.40;;;22.80;97.80;;;;;;6724776;88;20520;-81
2021/08/01 12:04:17;;;;;;;4.22;1.40;;;23.20;98.00;;;;;;6727929;88;20205;-81
2021/08/01 12:14:22;;;;;;;3.78;1.40;;;25.30;94.70;;;;;;6730757;88;20189;-84
2021/08/01 12:24:31;;;;;;;3.35;1.60;;;25.50;94.60;;;;;;6731976;88;20191;-82
2021/08/01 12:34:31;;;;;;;3.15;1.50;;;24.20;94.80;;;;;;6679375;89;20295;-83
2021/08/01 12:44:33;;;;;;;6.20;1.55;;;24.10;95.80;;;;;;6645124;89;20276;-82
2021/08/01 12:54:34;;;;;;;3.95;1.90;;;25.40;94.80;;;;;;6651300;89;20218;-82
2021/08/01 13:04:45;;;;;;;6.60;1.30;;;26.30;93.40;;;;;;6707314;88;20274;-81
2021/08/01 13:14:46;;;;;;;4.00;1.50;;;25.20;93.20;;;;;;6723712;88;20219;-82
2021/08/01 13:24:54;;;;;;;4.07;1.80;;;24.90;94.90;;;;;;6725065;88;20225;-81
2021/08/01 13:34:56;;;;;;;3.35;1.70;;;25.70;93.30;;;;;;6668180;89;20946;-81
2021/08/01 13:44:58;;;;;;;3.35;1.70;;;25.20;94.70;;;;;;6667180;89;20219;-81
2021/08/01 13:55:00;;;;;;;4.30;1.55;;;24.20;95.30;;;;;;6711502;88;20203;-81
2021/08/01 14:05:02;;;;;;;3.15;1.90;;;23.10;96.90;;;;;;6722776;88;20310;-80
2021/08/01 14:15:07;;;;;;;3.00;1.83;;;21.50;99.90;;;;;;6722943;88;20585;-81
2021/08/01 14:25:09;;;;;;;4.43;1.83;;;21.30;99.90;;;;;;6724169;88;20659;-82
2021/08/01 14:35:10;;;;;;;2.58;1.67;;;21.80;99.90;;;;;;6723470;77;20694;-77
2021/08/01 14:45:11;;;;;;;3.40;2.10;;;23.30;99.90;;;;;;6726223;88;20197;-77
2021/08/01 14:55:12;;;;;;;6.20;2.10;;;22.20;99.90;;;;;;6727537;88;20701;-77
2021/08/01 15:05:28;;;;;;;3.10;1.95;;;22.00;99.90;;;;;;6734529;88;20386;-78
2021/08/01 15:15:36;;;;;;;10.30;4.53;;;22.00;99.90;;;;;;6727423;88;20652;-77
2021/08/01 15:25:37;;;;;;;9.32;4.65;;;19.20;99.90;;;;;;6730379;88;20192;-79
2021/08/01 15:35:39;;;;;;;4.87;1.90;;;19.00;99.90;;;;;;6747771;88;20219;-78
2021/08/01 15:45:40;;;;;;;3.33;0.80;;;19.60;99.90;;;;;;6727946;88;20245;-80
2021/08/01 15:55:47;;;;;;;2.40;0.80;;;19.60;99.90;;;;;;6748004;88;20185;-80
2021/08/01 16:06:04;;;;;;;1.23;0.52;;;19.90;99.90;;;;;;6737017;88;20609;-79
2021/08/01 16:16:09;;;;;;;3.50;0.60;;;19.70;99.90;;;;;;6739255;88;20744;-79
2021/08/01 16:26:10;;;;;;;3.10;0.85;;;19.50;99.90;;;;;;6727045;88;20198;-79
2021/08/01 16:36:15;;;;;;;1.55;0.80;;;19.80;99.90;;;;;;6730580;88;20705;-79
2021/08/01 16:46:19;;;;;;;1.40;0.77;;;19.70;99.90;;;;;;6733175;88;20185;-81
2021/08/01 16:56:29;;;;;;;1.70;1.00;;;19.80;99.90;;;;;;6738360;88;20937;-80
2021/08/01 17:06:55;;;;;;;2.35;0.80;;;19.80;99.90;;;;;;6721911;88;20181;-80
2021/08/01 17:16:57;;;;;;;2.65;1.20;;;19.70;99.90;;;;;;6727806;88;20602;-79
2021/08/01 17:26:57;;;;;;;1.87;1.10;;;19.70;99.90;;;;;;6739196;88;20319;-80
2021/08/01 17:36:58;;;;;;;3.85;1.00;;;19.80;99.90;;;;;;6724428;88;20395;-77
2021/08/01 17:47:00;;;;;;;2.00;1.10;;;19.70;99.90;;;;;;6733476;88;20186;-77
2021/08/01 17:57:05;;;;;;;2.75;1.10;;;19.50;99.90;;;;;;6723069;88;20738;-77
2021/08/01 18:07:32;;;;;;;2.58;1.00;;;19.60;99.90;;;;;;6724000;88;20649;-78
2021/08/01 18:17:35;;;;;;;1.77;1.00;;;19.30;99.90;;;;;;6724868;88;20185;-78
2021/08/01 18:27:35;;;;;;;1.50;0.95;;;19.10;99.90;;;;;;6723437;88;20647;-79
2021/08/01 18:37:37;;;;;;;4.12;1.45;;;19.00;99.90;;;;;;6727112;88;20213;-78
2021/08/01 18:47:41;;;;;;;3.08;1.42;;;18.80;99.90;;;;;;6744020;88;20396;-77
2021/08/01 18:57:44;;;;;;;2.85;1.17;;;18.60;99.90;;;;;;6743047;88;20198;-78
2021/08/01 19:07:45;;;;;;;2.62;1.50;;;18.30;99.90;;;;;;6743144;88;20226;-78
2021/08/01 19:18:01;;;;;;;4.12;1.40;;;18.30;99.90;;;;;;6742400;88;20207;-78
2021/08/01 19:28:07;;;;;;;2.87;1.70;;;18.20;99.90;;;;;;6729272;88;20204;-78
2021/08/01 19:38:07;;;;;;;2.58;1.60;;;18.00;99.90;;;;;;6735447;88;20262;-78
2021/08/01 19:48:08;;;;;;;2.70;1.50;;;17.80;99.90;;;;;;6741347;88;20193;-78
2021/08/01 19:58:08;;;;;;;3.75;1.70;;;17.80;99.90;;;;;;6742306;88;20204;-79
2021/08/01 20:08:09;;;;;;;2.50;1.70;;;17.80;99.90;;;;;;6735637;88;20755;-77
2021/08/01 20:18:09;;;;;;;2.90;1.65;;;17.70;99.90;;;;;;6735466;88;20254;-76
2021/08/01 20:28:10;;;;;;;3.10;1.80;;;17.80;99.90;;;;;;6737942;88;20257;-76
2021/08/01 20:38:10;;;;;;;3.37;1.80;;;17.60;99.90;;;;;;6736911;88;20226;-79
2021/08/01 20:48:13;;;;;;;3.33;1.67;;;17.50;99.90;;;;;;6735336;88;20211;-79
2021/08/01 20:58:13;;;;;;;1.95;1.42;;;17.40;99.90;;;;;;6732879;88;20229;-79
2021/08/01 21:08:14;;;;;;;2.00;1.33;;;17.40;99.90;;;;;;6743431;88;20208;-78
2021/08/01 21:18:15;;;;;;;2.53;1.63;;;17.30;99.90;;;;;;6734093;88;20486;-79
2021/08/01 21:28:15;;;;;;;2.35;1.60;;;17.20;99.90;;;;;;6748245;88;20613;-77
2021/08/01 21:38:16;;;;;;;2.33;1.52;;;17.10;99.90;;;;;;6729329;88;20324;-79
2021/08/01 21:48:16;;;;;;;2.55;1.60;;;17.10;99.90;;;;;;6719518;88;20822;-77
2021/08/01 21:58:17;;;;;;;2.80;1.70;;;16.90;99.90;;;;;;6732816;88;20274;-78
2021/08/01 22:08:18;;;;;;;3.20;1.62;;;16.80;99.90;;;;;;6734116;88;20399;-77
2021/08/01 22:18:19;;;;;;;3.37;1.60;;;16.70;99.90;;;;;;6726195;88;20286;-78
2021/08/01 22:28:22;;;;;;;3.33;1.65;;;16.70;99.90;;;;;;6724089;88;20200;-78
2021/08/01 22:38:24;;;;;;;3.08;1.80;;;16.60;99.90;;;;;;6736661;88;20236;-78
2021/08/01 22:48:26;;;;;;;3.22;2.20;;;16.60;99.90;;;;;;6739344;88;20193;-78
2021/08/01 22:58:27;;;;;;;4.05;1.95;;;16.60;99.90;;;;;;6728589;88;20190;-78
2021/08/01 23:08:52;;;;;;;3.08;2.20;;;16.60;99.90;;;;;;6722393;88;20648;-78
2021/08/01 23:18:58;;;;;;;4.57;2.60;;;16.40;99.90;;;;;;6722577;88;20173;-78
2021/08/01 23:28:59;;;;;;;2.67;2.20;;;16.50;99.90;;;;;;6722732;88;20202;-77
2021/08/01 23:39:00;;;;;;;2.90;2.20;;;16.60;99.90;;;;;;6728999;88;20640;-78
2021/08/01 23:49:02;;;;;;;5.07;2.30;;;16.70;99.90;;;;;;6736582;88;20210;-79
2021/08/01 23:59:26;;;;;;;3.67;2.35;;;16.60;99.90;;;;;;6727288;88;20217;-79
